sensor_id;sensor_type;location;lat;lon;timestamp;P1;durP1;ratioP1;P2;durP2;ratioP2
18104;SDS011;9179;50.968;3.134;2023-12-07T00:01:05;27.13;;;11.13;;
18104;SDS011;9179;50.968;3.134;2023-12-07T00:03:32;22.02;;;11.20;;
18104;SDS011;9179;50.968;3.134;2023-12-07T00:06:00;21.52;;;12.32;;
18104;SDS011;9179;50.968;3.134;2023-12-07T00:08:28;31.50;;;12.55;;
18104;SDS011;9179;50.968;3.134;2023-12-07T00:10:54;24.73;;;11.60;;
18104;SDS011;9179;50.968;3.134;2023-12-07T00:13:21;16.77;;;10.68;;
18104;SDS011;9179;50.968;3.134;2023-12-07T00:15:48;19.92;;;11.88;;
18104;SDS011;9179;50.968;3.134;2023-12-07T00:18:15;25.42;;;11.57;;
18104;SDS011;9179;50.968;3.134;2023-12-07T00:20:42;18.27;;;10.70;;
18104;SDS011;9179;50.968;3.134;2023-12-07T00:23:11;17.23;;;11.48;;
18104;SDS011;9179;50.968;3.134;2023-12-07T00:25:38;23.45;;;11.75;;
18104;SDS011;9179;50.968;3.134;2023-12-07T00:28:05;24.85;;;10.57;;
18104;SDS011;9179;50.968;3.134;2023-12-07T00:30:32;15.50;;;9.75;;
18104;SDS011;9179;50.968;3.134;2023-12-07T00:33:00;17.10;;;9.68;;
18104;SDS011;9179;50.968;3.134;2023-12-07T00:35:27;15.35;;;9.55;;
18104;SDS011;9179;50.968;3.134;2023-12-07T00:37:54;20.20;;;10.27;;
18104;SDS011;9179;50.968;3.134;2023-12-07T00:40:23;14.35;;;10.00;;
18104;SDS011;9179;50.968;3.134;2023-12-07T00:42:50;13.13;;;10.10;;
18104;SDS011;9179;50.968;3.134;2023-12-07T00:45:17;20.60;;;9.85;;
18104;SDS011;9179;50.968;3.134;2023-12-07T00:47:44;14.13;;;9.55;;
18104;SDS011;9179;50.968;3.134;2023-12-07T00:50:12;15.35;;;9.68;;
18104;SDS011;9179;50.968;3.134;2023-12-07T00:52:40;17.10;;;8.95;;
18104;SDS011;9179;50.968;3.134;2023-12-07T00:55:07;20.17;;;9.95;;
18104;SDS011;9179;50.968;3.134;2023-12-07T00:57:35;25.52;;;11.45;;
18104;SDS011;9179;50.968;3.134;2023-12-07T01:00:03;16.77;;;8.73;;
18104;SDS011;9179;50.968;3.134;2023-12-07T01:02:31;16.17;;;8.95;;
18104;SDS011;9179;50.968;3.134;2023-12-07T01:04:58;16.10;;;10.15;;
18104;SDS011;9179;50.968;3.134;2023-12-07T01:07:25;17.75;;;11.10;;
18104;SDS011;9179;50.968;3.134;2023-12-07T01:09:51;14.32;;;8.85;;
18104;SDS011;9179;50.968;3.134;2023-12-07T01:12:18;12.70;;;9.00;;
18104;SDS011;9179;50.968;3.134;2023-12-07T01:14:46;15.27;;;9.30;;
18104;SDS011;9179;50.968;3.134;2023-12-07T01:17:13;13.50;;;9.90;;
18104;SDS011;9179;50.968;3.134;2023-12-07T01:19:40;15.10;;;9.98;;
18104;SDS011;9179;50.968;3.134;2023-12-07T01:22:07;18.30;;;10.43;;
18104;SDS011;9179;50.968;3.134;2023-12-07T01:24:34;19.08;;;9.88;;
18104;SDS011;9179;50.968;3.134;2023-12-07T01:27:01;13.18;;;9.77;;
18104;SDS011;9179;50.968;3.134;2023-12-07T01:29:28;15.68;;;8.98;;
18104;SDS011;9179;50.968;3.134;2023-12-07T01:31:56;15.75;;;9.80;;
18104;SDS011;9179;50.968;3.134;2023-12-07T01:34:23;18.55;;;11.13;;
18104;SDS011;9179;50.968;3.134;2023-12-07T01:36:50;15.70;;;10.00;;
18104;SDS011;9179;50.968;3.134;2023-12-07T01:39:17;14.98;;;9.35;;
18104;SDS011;9179;50.968;3.134;2023-12-07T01:41:44;13.00;;;9.95;;
18104;SDS011;9179;50.968;3.134;2023-12-07T01:44:11;16.92;;;9.77;;
18104;SDS011;9179;50.968;3.134;2023-12-07T01:46:38;13.65;;;9.32;;
18104;SDS011;9179;50.968;3.134;2023-12-07T01:49:06;15.75;;;10.00;;
18104;SDS011;9179;50.968;3.134;2023-12-07T01:51:33;17.67;;;10.52;;
18104;SDS011;9179;50.968;3.134;2023-12-07T01:54:00;18.25;;;10.73;;
18104;SDS011;9179;50.968;3.134;2023-12-07T01:56:27;14.82;;;9.85;;
18104;SDS011;9179;50.968;3.134;2023-12-07T01:58:55;18.73;;;11.65;;
18104;SDS011;9179;50.968;3.134;2023-12-07T02:01:23;19.52;;;10.27;;
18104;SDS011;9179;50.968;3.134;2023-12-07T02:03:50;21.05;;;10.68;;
18104;SDS011;9179;50.968;3.134;2023-12-07T02:06:19;23.48;;;12.00;;
18104;SDS011;9179;50.968;3.134;2023-12-07T02:08:46;22.88;;;10.25;;
18104;SDS011;9179;50.968;3.134;2023-12-07T02:11:13;20.48;;;12.73;;
18104;SDS011;9179;50.968;3.134;2023-12-07T02:13:40;23.05;;;12.25;;
18104;SDS011;9179;50.968;3.134;2023-12-07T02:16:10;21.02;;;11.77;;
18104;SDS011;9179;50.968;3.134;2023-12-07T02:18:42;21.13;;;11.75;;
18104;SDS011;9179;50.968;3.134;2023-12-07T02:21:16;20.45;;;12.07;;
18104;SDS011;9179;50.968;3.134;2023-12-07T02:23:49;22.73;;;13.48;;
18104;SDS011;9179;50.968;3.134;2023-12-07T02:26:19;25.65;;;13.02;;
18104;SDS011;9179;50.968;3.134;2023-12-07T02:28:49;27.65;;;13.52;;
18104;SDS011;9179;50.968;3.134;2023-12-07T02:31:17;27.33;;;15.10;;
18104;SDS011;9179;50.968;3.134;2023-12-07T02:33:44;22.23;;;12.52;;
18104;SDS011;9179;50.968;3.134;2023-12-07T02:36:12;25.20;;;13.50;;
18104;SDS011;9179;50.968;3.134;2023-12-07T02:38:41;21.65;;;12.80;;
18104;SDS011;9179;50.968;3.134;2023-12-07T02:41:12;23.65;;;12.93;;
18104;SDS011;9179;50.968;3.134;2023-12-07T02:43:40;25.20;;;15.70;;
18104;SDS011;9179;50.968;3.134;2023-12-07T02:46:09;28.02;;;15.48;;
18104;SDS011;9179;50.968;3.134;2023-12-07T02:48:35;24.63;;;15.25;;
18104;SDS011;9179;50.968;3.134;2023-12-07T02:51:03;26.15;;;16.30;;
18104;SDS011;9179;50.968;3.134;2023-12-07T02:53:30;24.40;;;16.23;;
18104;SDS011;9179;50.968;3.134;2023-12-07T02:55:57;30.52;;;16.55;;
18104;SDS011;9179;50.968;3.134;2023-12-07T02:58:24;24.50;;;15.57;;
18104;SDS011;9179;50.968;3.134;2023-12-07T03:00:50;27.10;;;15.45;;
18104;SDS011;9179;50.968;3.134;2023-12-07T03:03:19;26.35;;;15.23;;
18104;SDS011;9179;50.968;3.134;2023-12-07T03:05:46;25.48;;;16.75;;
18104;SDS011;9179;50.968;3.134;2023-12-07T03:08:12;28.92;;;17.55;;
18104;SDS011;9179;50.968;3.134;2023-12-07T03:10:39;26.35;;;14.63;;
18104;SDS011;9179;50.968;3.134;2023-12-07T03:13:06;30.15;;;16.75;;
18104;SDS011;9179;50.968;3.134;2023-12-07T03:15:33;28.70;;;18.10;;
18104;SDS011;9179;50.968;3.134;2023-12-07T03:18:00;25.50;;;15.98;;
18104;SDS011;9179;50.968;3.134;2023-12-07T03:20:28;24.80;;;15.25;;
18104;SDS011;9179;50.968;3.134;2023-12-07T03:22:55;26.25;;;17.00;;
18104;SDS011;9179;50.968;3.134;2023-12-07T03:25:22;23.60;;;15.40;;
18104;SDS011;9179;50.968;3.134;2023-12-07T03:27:49;23.08;;;14.40;;
18104;SDS011;9179;50.968;3.134;2023-12-07T03:30:17;23.90;;;14.40;;
18104;SDS011;9179;50.968;3.134;2023-12-07T03:32:44;25.70;;;16.20;;
18104;SDS011;9179;50.968;3.134;2023-12-07T03:35:10;22.10;;;15.13;;
18104;SDS011;9179;50.968;3.134;2023-12-07T03:37:39;21.25;;;14.82;;
18104;SDS011;9179;50.968;3.134;2023-12-07T03:40:07;23.17;;;14.43;;
18104;SDS011;9179;50.968;3.134;2023-12-07T03:42:34;24.42;;;15.38;;
18104;SDS011;9179;50.968;3.134;2023-12-07T03:45:01;24.90;;;14.82;;
18104;SDS011;9179;50.968;3.134;2023-12-07T03:47:29;23.35;;;14.85;;
18104;SDS011;9179;50.968;3.134;2023-12-07T03:49:56;21.77;;;14.52;;
18104;SDS011;9179;50.968;3.134;2023-12-07T03:52:23;25.02;;;15.15;;
18104;SDS011;9179;50.968;3.134;2023-12-07T03:54:51;25.58;;;15.85;;
18104;SDS011;9179;50.968;3.134;2023-12-07T03:57:18;23.77;;;14.82;;
18104;SDS011;9179;50.968;3.134;2023-12-07T03:59:45;22.17;;;13.73;;
18104;SDS011;9179;50.968;3.134;2023-12-07T04:02:12;25.83;;;17.35;;
18104;SDS011;9179;50.968;3.134;2023-12-07T04:04:39;28.30;;;18.15;;
18104;SDS011;9179;50.968;3.134;2023-12-07T04:07:06;28.83;;;17.92;;
18104;SDS011;9179;50.968;3.134;2023-12-07T04:09:33;32.55;;;18.58;;
18104;SDS011;9179;50.968;3.134;2023-12-07T04:12:01;24.80;;;17.52;;
18104;SDS011;9179;50.968;3.134;2023-12-07T04:14:28;35.15;;;19.23;;
18104;SDS011;9179;50.968;3.134;2023-12-07T04:16:55;31.00;;;18.42;;
18104;SDS011;9179;50.968;3.134;2023-12-07T04:19:22;32.95;;;20.02;;
18104;SDS011;9179;50.968;3.134;2023-12-07T04:21:49;32.35;;;20.98;;
18104;SDS011;9179;50.968;3.134;2023-12-07T04:24:16;30.98;;;20.00;;
18104;SDS011;9179;50.968;3.134;2023-12-07T04:26:43;25.05;;;19.10;;
18104;SDS011;9179;50.968;3.134;2023-12-07T04:29:11;32.38;;;20.23;;
18104;SDS011;9179;50.968;3.134;2023-12-07T04:31:38;30.98;;;18.67;;
18104;SDS011;9179;50.968;3.134;2023-12-07T04:34:05;32.00;;;18.02;;
18104;SDS011;9179;50.968;3.134;2023-12-07T04:36:32;33.38;;;18.13;;
18104;SDS011;9179;50.968;3.134;2023-12-07T04:38:59;33.03;;;19.45;;
18104;SDS011;9179;50.968;3.134;2023-12-07T04:41:26;34.50;;;19.33;;
18104;SDS011;9179;50.968;3.134;2023-12-07T04:43:53;32.95;;;20.63;;
18104;SDS011;9179;50.968;3.134;2023-12-07T04:46:21;32.72;;;19.08;;
18104;SDS011;9179;50.968;3.134;2023-12-07T04:48:48;34.70;;;20.17;;
18104;SDS011;9179;50.968;3.134;2023-12-07T04:51:14;31.95;;;20.13;;
18104;SDS011;9179;50.968;3.134;2023-12-07T04:53:41;33.47;;;21.08;;
18104;SDS011;9179;50.968;3.134;2023-12-07T04:56:08;42.38;;;20.63;;
18104;SDS011;9179;50.968;3.134;2023-12-07T04:58:35;32.97;;;20.27;;
18104;SDS011;9179;50.968;3.134;2023-12-07T05:01:02;29.33;;;19.13;;
18104;SDS011;9179;50.968;3.134;2023-12-07T05:03:31;30.65;;;20.02;;
18104;SDS011;9179;50.968;3.134;2023-12-07T05:05:58;31.13;;;19.60;;
18104;SDS011;9179;50.968;3.134;2023-12-07T05:08:25;28.38;;;20.58;;
18104;SDS011;9179;50.968;3.134;2023-12-07T05:10:52;34.45;;;21.27;;
18104;SDS011;9179;50.968;3.134;2023-12-07T05:13:19;28.98;;;20.13;;
18104;SDS011;9179;50.968;3.134;2023-12-07T05:15:46;29.05;;;19.33;;
18104;SDS011;9179;50.968;3.134;2023-12-07T05:18:13;28.80;;;18.95;;
18104;SDS011;9179;50.968;3.134;2023-12-07T05:20:41;29.50;;;18.83;;
18104;SDS011;9179;50.968;3.134;2023-12-07T05:23:08;26.58;;;17.25;;
18104;SDS011;9179;50.968;3.134;2023-12-07T05:25:35;25.60;;;17.27;;
18104;SDS011;9179;50.968;3.134;2023-12-07T05:28:02;27.27;;;17.33;;
18104;SDS011;9179;50.968;3.134;2023-12-07T05:30:29;25.67;;;18.35;;
18104;SDS011;9179;50.968;3.134;2023-12-07T05:32:56;26.13;;;16.90;;
18104;SDS011;9179;50.968;3.134;2023-12-07T05:35:23;25.13;;;15.43;;
18104;SDS011;9179;50.968;3.134;2023-12-07T05:37:51;21.27;;;14.32;;
18104;SDS011;9179;50.968;3.134;2023-12-07T05:40:18;22.30;;;15.60;;
18104;SDS011;9179;50.968;3.134;2023-12-07T05:42:46;21.77;;;14.02;;
18104;SDS011;9179;50.968;3.134;2023-12-07T05:45:15;21.40;;;15.75;;
18104;SDS011;9179;50.968;3.134;2023-12-07T05:47:42;20.30;;;15.00;;
18104;SDS011;9179;50.968;3.134;2023-12-07T05:50:10;22.45;;;15.45;;
18104;SDS011;9179;50.968;3.134;2023-12-07T05:52:37;19.63;;;15.32;;
18104;SDS011;9179;50.968;3.134;2023-12-07T05:55:05;22.67;;;16.20;;
18104;SDS011;9179;50.968;3.134;2023-12-07T05:57:33;19.48;;;13.63;;
18104;SDS011;9179;50.968;3.134;2023-12-07T06:00:00;24.27;;;15.73;;
18104;SDS011;9179;50.968;3.134;2023-12-07T06:02:30;17.42;;;14.25;;
18104;SDS011;9179;50.968;3.134;2023-12-07T06:04:58;23.40;;;15.65;;
18104;SDS011;9179;50.968;3.134;2023-12-07T06:07:24;23.00;;;17.02;;
18104;SDS011;9179;50.968;3.134;2023-12-07T06:09:51;26.45;;;17.52;;
18104;SDS011;9179;50.968;3.134;2023-12-07T06:12:20;21.77;;;15.50;;
18104;SDS011;9179;50.968;3.134;2023-12-07T06:14:47;23.25;;;15.70;;
18104;SDS011;9179;50.968;3.134;2023-12-07T06:17:13;21.10;;;15.23;;
18104;SDS011;9179;50.968;3.134;2023-12-07T06:19:40;26.85;;;15.88;;
18104;SDS011;9179;50.968;3.134;2023-12-07T06:22:08;20.48;;;14.68;;
18104;SDS011;9179;50.968;3.134;2023-12-07T06:24:35;23.58;;;16.77;;
18104;SDS011;9179;50.968;3.134;2023-12-07T06:27:02;24.67;;;17.23;;
18104;SDS011;9179;50.968;3.134;2023-12-07T06:29:31;22.92;;;18.38;;
18104;SDS011;9179;50.968;3.134;2023-12-07T06:31:58;24.23;;;17.50;;
18104;SDS011;9179;50.968;3.134;2023-12-07T06:34:25;23.05;;;15.25;;
18104;SDS011;9179;50.968;3.134;2023-12-07T06:36:53;26.95;;;18.92;;
18104;SDS011;9179;50.968;3.134;2023-12-07T06:39:20;24.85;;;17.05;;
18104;SDS011;9179;50.968;3.134;2023-12-07T06:41:46;24.55;;;16.30;;
18104;SDS011;9179;50.968;3.134;2023-12-07T06:44:13;23.20;;;15.02;;
18104;SDS011;9179;50.968;3.134;2023-12-07T06:46:42;25.00;;;16.88;;
18104;SDS011;9179;50.968;3.134;2023-12-07T06:49:08;27.20;;;18.23;;
18104;SDS011;9179;50.968;3.134;2023-12-07T06:51:37;25.23;;;16.75;;
18104;SDS011;9179;50.968;3.134;2023-12-07T06:54:05;25.10;;;16.80;;
18104;SDS011;9179;50.968;3.134;2023-12-07T06:56:31;24.23;;;16.58;;
18104;SDS011;9179;50.968;3.134;2023-12-07T06:58:58;23.20;;;15.70;;
18104;SDS011;9179;50.968;3.134;2023-12-07T07:01:25;18.73;;;14.57;;
18104;SDS011;9179;50.968;3.134;2023-12-07T07:03:54;18.38;;;14.02;;
18104;SDS011;9179;50.968;3.134;2023-12-07T07:06:21;19.95;;;13.73;;
18104;SDS011;9179;50.968;3.134;2023-12-07T07:08:48;21.17;;;14.95;;
18104;SDS011;9179;50.968;3.134;2023-12-07T07:11:15;24.35;;;15.63;;
18104;SDS011;9179;50.968;3.134;2023-12-07T07:13:42;19.15;;;15.15;;
18104;SDS011;9179;50.968;3.134;2023-12-07T07:16:09;17.98;;;13.75;;
18104;SDS011;9179;50.968;3.134;2023-12-07T07:18:37;18.58;;;13.65;;
18104;SDS011;9179;50.968;3.134;2023-12-07T07:21:06;22.95;;;14.77;;
18104;SDS011;9179;50.968;3.134;2023-12-07T07:23:33;23.08;;;14.70;;
18104;SDS011;9179;50.968;3.134;2023-12-07T07:26:01;20.05;;;14.27;;
18104;SDS011;9179;50.968;3.134;2023-12-07T07:28:28;19.30;;;13.30;;
18104;SDS011;9179;50.968;3.134;2023-12-07T07:30:55;17.60;;;13.95;;
18104;SDS011;9179;50.968;3.134;2023-12-07T07:33:22;17.45;;;12.93;;
18104;SDS011;9179;50.968;3.134;2023-12-07T07:35:49;18.42;;;12.95;;
18104;SDS011;9179;50.968;3.134;2023-12-07T07:38:17;24.10;;;16.55;;
18104;SDS011;9179;50.968;3.134;2023-12-07T07:40:44;22.20;;;13.85;;
18104;SDS011;9179;50.968;3.134;2023-12-07T07:43:12;19.30;;;12.90;;
18104;SDS011;9179;50.968;3.134;2023-12-07T07:45:39;20.70;;;15.77;;
18104;SDS011;9179;50.968;3.134;2023-12-07T07:48:06;21.77;;;14.38;;
18104;SDS011;9179;50.968;3.134;2023-12-07T07:50:33;19.58;;;14.18;;
18104;SDS011;9179;50.968;3.134;2023-12-07T07:53:01;18.65;;;13.32;;
18104;SDS011;9179;50.968;3.134;2023-12-07T07:55:29;16.25;;;12.90;;
18104;SDS011;9179;50.968;3.134;2023-12-07T07:57:57;20.55;;;12.85;;
18104;SDS011;9179;50.968;3.134;2023-12-07T08:00:24;17.75;;;12.38;;
18104;SDS011;9179;50.968;3.134;2023-12-07T08:02:53;19.45;;;13.90;;
18104;SDS011;9179;50.968;3.134;2023-12-07T08:05:20;18.75;;;13.25;;
18104;SDS011;9179;50.968;3.134;2023-12-07T08:07:47;22.50;;;14.27;;
18104;SDS011;9179;50.968;3.134;2023-12-07T08:10:14;16.75;;;13.38;;
18104;SDS011;9179;50.968;3.134;2023-12-07T08:12:42;16.20;;;12.32;;
18104;SDS011;9179;50.968;3.134;2023-12-07T08:15:09;19.75;;;12.23;;
18104;SDS011;9179;50.968;3.134;2023-12-07T08:17:37;18.00;;;13.45;;
18104;SDS011;9179;50.968;3.134;2023-12-07T08:20:07;18.88;;;13.18;;
18104;SDS011;9179;50.968;3.134;2023-12-07T08:22:35;17.73;;;13.23;;
18104;SDS011;9179;50.968;3.134;2023-12-07T08:25:02;19.40;;;13.43;;
18104;SDS011;9179;50.968;3.134;2023-12-07T08:27:31;16.83;;;12.45;;
18104;SDS011;9179;50.968;3.134;2023-12-07T08:29:59;19.75;;;13.98;;
18104;SDS011;9179;50.968;3.134;2023-12-07T08:32:27;15.18;;;12.85;;
18104;SDS011;9179;50.968;3.134;2023-12-07T08:34:54;17.13;;;12.10;;
18104;SDS011;9179;50.968;3.134;2023-12-07T08:37:21;18.98;;;12.43;;
18104;SDS011;9179;50.968;3.134;2023-12-07T08:39:48;15.40;;;11.57;;
18104;SDS011;9179;50.968;3.134;2023-12-07T08:42:15;16.30;;;13.07;;
18104;SDS011;9179;50.968;3.134;2023-12-07T08:44:42;19.95;;;12.50;;
18104;SDS011;9179;50.968;3.134;2023-12-07T08:47:11;15.95;;;11.95;;
18104;SDS011;9179;50.968;3.134;2023-12-07T08:49:38;16.80;;;12.70;;
18104;SDS011;9179;50.968;3.134;2023-12-07T08:52:05;17.15;;;12.63;;
18104;SDS011;9179;50.968;3.134;2023-12-07T08:54:32;19.23;;;12.82;;
18104;SDS011;9179;50.968;3.134;2023-12-07T08:57:01;13.93;;;11.98;;
18104;SDS011;9179;50.968;3.134;2023-12-07T08:59:28;16.30;;;11.40;;
18104;SDS011;9179;50.968;3.134;2023-12-07T09:01:55;15.77;;;11.60;;
18104;SDS011;9179;50.968;3.134;2023-12-07T09:04:23;13.75;;;10.95;;
18104;SDS011;9179;50.968;3.134;2023-12-07T09:06:50;15.57;;;11.15;;
18104;SDS011;9179;50.968;3.134;2023-12-07T09:09:17;17.17;;;10.77;;
18104;SDS011;9179;50.968;3.134;2023-12-07T09:11:45;16.10;;;10.48;;
18104;SDS011;9179;50.968;3.134;2023-12-07T09:14:12;17.00;;;11.25;;
18104;SDS011;9179;50.968;3.134;2023-12-07T09:16:42;16.15;;;12.02;;
18104;SDS011;9179;50.968;3.134;2023-12-07T09:19:10;17.20;;;11.65;;
18104;SDS011;9179;50.968;3.134;2023-12-07T09:21:40;12.50;;;10.63;;
18104;SDS011;9179;50.968;3.134;2023-12-07T09:24:07;14.55;;;10.98;;
18104;SDS011;9179;50.968;3.134;2023-12-07T09:26:34;12.48;;;10.23;;
18104;SDS011;9179;50.968;3.134;2023-12-07T09:29:02;16.85;;;9.82;;
18104;SDS011;9179;50.968;3.134;2023-12-07T09:31:29;13.38;;;11.75;;
18104;SDS011;9179;50.968;3.134;2023-12-07T09:33:56;14.10;;;9.82;;
18104;SDS011;9179;50.968;3.134;2023-12-07T09:36:22;14.25;;;9.48;;
18104;SDS011;9179;50.968;3.134;2023-12-07T09:38:53;12.63;;;9.95;;
18104;SDS011;9179;50.968;3.134;2023-12-07T09:41:20;13.90;;;9.88;;
18104;SDS011;9179;50.968;3.134;2023-12-07T09:43:48;11.52;;;9.38;;
18104;SDS011;9179;50.968;3.134;2023-12-07T09:46:15;14.90;;;9.43;;
18104;SDS011;9179;50.968;3.134;2023-12-07T09:48:43;10.75;;;9.65;;
18104;SDS011;9179;50.968;3.134;2023-12-07T09:51:11;12.85;;;10.27;;
18104;SDS011;9179;50.968;3.134;2023-12-07T09:53:38;11.27;;;8.93;;
18104;SDS011;9179;50.968;3.134;2023-12-07T09:56:10;12.50;;;9.95;;
18104;SDS011;9179;50.968;3.134;2023-12-07T09:58:39;11.38;;;9.40;;
18104;SDS011;9179;50.968;3.134;2023-12-07T10:01:07;11.30;;;10.10;;
18104;SDS011;9179;50.968;3.134;2023-12-07T10:03:34;13.50;;;10.48;;
18104;SDS011;9179;50.968;3.134;2023-12-07T10:06:01;10.95;;;9.55;;
18104;SDS011;9179;50.968;3.134;2023-12-07T10:08:28;13.98;;;10.43;;
18104;SDS011;9179;50.968;3.134;2023-12-07T10:11:03;12.05;;;10.80;;
18104;SDS011;9179;50.968;3.134;2023-12-07T10:13:32;10.93;;;9.80;;
18104;SDS011;9179;50.968;3.134;2023-12-07T10:16:10;14.23;;;9.23;;
18104;SDS011;9179;50.968;3.134;2023-12-07T10:18:38;12.68;;;9.88;;
18104;SDS011;9179;50.968;3.134;2023-12-07T10:21:06;12.80;;;10.95;;
18104;SDS011;9179;50.968;3.134;2023-12-07T10:23:34;14.60;;;10.63;;
18104;SDS011;9179;50.968;3.134;2023-12-07T10:26:01;12.20;;;9.48;;
18104;SDS011;9179;50.968;3.134;2023-12-07T10:28:28;13.27;;;10.30;;
18104;SDS011;9179;50.968;3.134;2023-12-07T10:30:57;14.02;;;10.52;;
18104;SDS011;9179;50.968;3.134;2023-12-07T10:33:25;14.50;;;10.40;;
18104;SDS011;9179;50.968;3.134;2023-12-07T10:35:52;11.60;;;9.55;;
18104;SDS011;9179;50.968;3.134;2023-12-07T10:38:19;11.57;;;10.13;;
18104;SDS011;9179;50.968;3.134;2023-12-07T10:40:46;17.33;;;9.85;;
18104;SDS011;9179;50.968;3.134;2023-12-07T10:43:15;13.18;;;10.05;;
18104;SDS011;9179;50.968;3.134;2023-12-07T10:45:45;13.45;;;9.90;;
18104;SDS011;9179;50.968;3.134;2023-12-07T10:48:14;13.45;;;9.48;;
18104;SDS011;9179;50.968;3.134;2023-12-07T10:50:43;14.40;;;10.18;;
18104;SDS011;9179;50.968;3.134;2023-12-07T10:53:15;12.88;;;9.77;;
18104;SDS011;9179;50.968;3.134;2023-12-07T10:55:49;11.32;;;9.52;;
18104;SDS011;9179;50.968;3.134;2023-12-07T10:58:21;12.68;;;9.77;;
18104;SDS011;9179;50.968;3.134;2023-12-07T11:00:50;12.18;;;9.10;;
18104;SDS011;9179;50.968;3.134;2023-12-07T11:03:19;12.85;;;10.52;;
18104;SDS011;9179;50.968;3.134;2023-12-07T11:05:47;9.90;;;8.95;;
18104;SDS011;9179;50.968;3.134;2023-12-07T11:08:18;11.20;;;9.55;;
18104;SDS011;9179;50.968;3.134;2023-12-07T11:10:53;11.30;;;9.13;;
18104;SDS011;9179;50.968;3.134;2023-12-07T11:13:27;11.25;;;10.00;;
18104;SDS011;9179;50.968;3.134;2023-12-07T11:15:56;11.93;;;9.05;;
18104;SDS011;9179;50.968;3.134;2023-12-07T11:18:26;11.20;;;9.43;;
18104;SDS011;9179;50.968;3.134;2023-12-07T11:20:53;9.77;;;8.80;;
18104;SDS011;9179;50.968;3.134;2023-12-07T11:23:21;11.65;;;8.85;;
18104;SDS011;9179;50.968;3.134;2023-12-07T11:25:49;10.73;;;8.85;;
18104;SDS011;9179;50.968;3.134;2023-12-07T11:28:18;9.50;;;8.55;;
18104;SDS011;9179;50.968;3.134;2023-12-07T11:31:00;9.30;;;8.30;;
18104;SDS011;9179;50.968;3.134;2023-12-07T11:33:29;8.15;;;7.22;;
18104;SDS011;9179;50.968;3.134;2023-12-07T11:36:03;10.43;;;8.02;;
18104;SDS011;9179;50.968;3.134;2023-12-07T11:38:31;12.20;;;9.63;;
18104;SDS011;9179;50.968;3.134;2023-12-07T11:40:58;12.00;;;8.63;;
18104;SDS011;9179;50.968;3.134;2023-12-07T11:46:12;11.32;;;8.40;;
18104;SDS011;9179;50.968;3.134;2023-12-07T11:48:46;8.32;;;7.45;;
18104;SDS011;9179;50.968;3.134;2023-12-07T11:51:15;9.98;;;7.57;;
18104;SDS011;9179;50.968;3.134;2023-12-07T11:53:43;9.93;;;7.82;;
18104;SDS011;9179;50.968;3.134;2023-12-07T11:56:10;9.23;;;7.65;;
18104;SDS011;9179;50.968;3.134;2023-12-07T11:58:38;9.98;;;8.10;;
18104;SDS011;9179;50.968;3.134;2023-12-07T12:01:05;8.50;;;7.38;;
18104;SDS011;9179;50.968;3.134;2023-12-07T12:03:33;9.90;;;8.90;;
18104;SDS011;9179;50.968;3.134;2023-12-07T12:06:03;10.35;;;7.90;;
18104;SDS011;9179;50.968;3.134;2023-12-07T12:08:33;8.63;;;7.05;;
18104;SDS011;9179;50.968;3.134;2023-12-07T12:11:00;8.52;;;7.28;;
18104;SDS011;9179;50.968;3.134;2023-12-07T12:13:27;11.23;;;7.05;;
18104;SDS011;9179;50.968;3.134;2023-12-07T12:15:55;9.82;;;7.55;;
18104;SDS011;9179;50.968;3.134;2023-12-07T12:18:22;8.48;;;7.25;;
18104;SDS011;9179;50.968;3.134;2023-12-07T12:20:50;9.18;;;7.20;;
18104;SDS011;9179;50.968;3.134;2023-12-07T12:23:19;8.15;;;7.10;;
18104;SDS011;9179;50.968;3.134;2023-12-07T12:25:46;9.32;;;7.53;;
18104;SDS011;9179;50.968;3.134;2023-12-07T12:28:15;8.45;;;7.00;;
18104;SDS011;9179;50.968;3.134;2023-12-07T12:30:44;8.05;;;6.82;;
18104;SDS011;9179;50.968;3.134;2023-12-07T12:33:12;9.45;;;7.18;;
18104;SDS011;9179;50.968;3.134;2023-12-07T12:35:40;11.30;;;7.22;;
18104;SDS011;9179;50.968;3.134;2023-12-07T12:38:08;7.05;;;6.35;;
18104;SDS011;9179;50.968;3.134;2023-12-07T12:40:38;7.15;;;5.97;;
18104;SDS011;9179;50.968;3.134;2023-12-07T12:43:06;9.00;;;6.75;;
18104;SDS011;9179;50.968;3.134;2023-12-07T12:45:33;11.23;;;6.55;;
18104;SDS011;9179;50.968;3.134;2023-12-07T12:48:01;8.20;;;5.68;;
18104;SDS011;9179;50.968;3.134;2023-12-07T12:50:34;9.98;;;6.90;;
18104;SDS011;9179;50.968;3.134;2023-12-07T12:53:03;7.40;;;5.43;;
18104;SDS011;9179;50.968;3.134;2023-12-07T12:55:31;6.70;;;6.10;;
18104;SDS011;9179;50.968;3.134;2023-12-07T12:58:03;7.32;;;6.18;;
18104;SDS011;9179;50.968;3.134;2023-12-07T13:00:33;10.35;;;6.90;;
18104;SDS011;9179;50.968;3.134;2023-12-07T13:03:00;11.02;;;7.05;;
18104;SDS011;9179;50.968;3.134;2023-12-07T13:05:28;7.35;;;6.60;;
18104;SDS011;9179;50.968;3.134;2023-12-07T13:07:55;7.55;;;5.72;;
18104;SDS011;9179;50.968;3.134;2023-12-07T13:10:24;8.27;;;6.97;;
18104;SDS011;9179;50.968;3.134;2023-12-07T13:12:50;6.47;;;5.82;;
18104;SDS011;9179;50.968;3.134;2023-12-07T13:15:19;6.70;;;6.00;;
18104;SDS011;9179;50.968;3.134;2023-12-07T13:17:46;6.45;;;5.82;;
18104;SDS011;9179;50.968;3.134;2023-12-07T13:20:14;7.07;;;6.32;;
18104;SDS011;9179;50.968;3.134;2023-12-07T13:22:41;6.75;;;5.95;;
18104;SDS011;9179;50.968;3.134;2023-12-07T13:25:08;8.65;;;6.78;;
18104;SDS011;9179;50.968;3.134;2023-12-07T13:27:37;6.13;;;5.32;;
18104;SDS011;9179;50.968;3.134;2023-12-07T13:30:04;8.25;;;6.32;;
18104;SDS011;9179;50.968;3.134;2023-12-07T13:32:33;6.97;;;5.85;;
18104;SDS011;9179;50.968;3.134;2023-12-07T13:35:02;9.05;;;6.18;;
18104;SDS011;9179;50.968;3.134;2023-12-07T13:37:29;7.13;;;5.63;;
18104;SDS011;9179;50.968;3.134;2023-12-07T13:39:57;7.22;;;6.53;;
18104;SDS011;9179;50.968;3.134;2023-12-07T13:42:25;8.93;;;6.20;;
18104;SDS011;9179;50.968;3.134;2023-12-07T13:44:54;9.10;;;6.78;;
18104;SDS011;9179;50.968;3.134;2023-12-07T13:47:22;6.90;;;6.28;;
18104;SDS011;9179;50.968;3.134;2023-12-07T13:49:55;7.70;;;6.43;;
18104;SDS011;9179;50.968;3.134;2023-12-07T13:52:22;9.02;;;6.35;;
18104;SDS011;9179;50.968;3.134;2023-12-07T13:54:49;6.63;;;6.03;;
18104;SDS011;9179;50.968;3.134;2023-12-07T13:57:17;5.95;;;5.32;;
18104;SDS011;9179;50.968;3.134;2023-12-07T13:59:44;7.30;;;5.60;;
18104;SDS011;9179;50.968;3.134;2023-12-07T14:02:11;8.60;;;6.53;;
18104;SDS011;9179;50.968;3.134;2023-12-07T14:04:38;6.43;;;5.72;;
18104;SDS011;9179;50.968;3.134;2023-12-07T14:07:11;6.10;;;5.43;;
18104;SDS011;9179;50.968;3.134;2023-12-07T14:09:39;6.30;;;5.78;;
18104;SDS011;9179;50.968;3.134;2023-12-07T14:12:07;6.55;;;5.57;;
18104;SDS011;9179;50.968;3.134;2023-12-07T14:14:36;6.55;;;5.80;;
18104;SDS011;9179;50.968;3.134;2023-12-07T14:17:02;6.95;;;5.00;;
18104;SDS011;9179;50.968;3.134;2023-12-07T14:19:29;5.35;;;4.85;;
18104;SDS011;9179;50.968;3.134;2023-12-07T14:21:56;4.93;;;4.53;;
18104;SDS011;9179;50.968;3.134;2023-12-07T14:24:25;5.35;;;4.82;;
18104;SDS011;9179;50.968;3.134;2023-12-07T14:26:52;5.55;;;5.05;;
18104;SDS011;9179;50.968;3.134;2023-12-07T14:29:19;6.70;;;5.22;;
18104;SDS011;9179;50.968;3.134;2023-12-07T14:31:47;7.53;;;5.53;;
18104;SDS011;9179;50.968;3.134;2023-12-07T14:34:15;5.32;;;4.82;;
18104;SDS011;9179;50.968;3.134;2023-12-07T14:36:42;5.85;;;5.18;;
18104;SDS011;9179;50.968;3.134;2023-12-07T14:39:11;5.30;;;4.88;;
18104;SDS011;9179;50.968;3.134;2023-12-07T14:41:43;5.50;;;4.78;;
18104;SDS011;9179;50.968;3.134;2023-12-07T14:44:12;5.22;;;4.68;;
18104;SDS011;9179;50.968;3.134;2023-12-07T14:46:40;4.63;;;4.22;;
18104;SDS011;9179;50.968;3.134;2023-12-07T14:49:08;6.18;;;4.65;;